This is the latest recevied weather packets stored in our database for station/object KA3WVU. If no packets are shown the sender has not sent any weather packets the latest 10 day(s).
| Time | Temp. | Humidity | Pressure | Rain* | Wind** | Luminosity | Snow |
|---|---|---|---|---|---|---|---|
| 1777817655 | 5.56° C | 61% | 1014.7 hPa | 0 mm | - | 227 W/m² | - |
| 1777817351 | 5.56° C | 63% | 1014.8 hPa | 0 mm | - | 448 W/m² | - |
| 1777817048 | 5° C | 60% | 1014.4 hPa | 0 mm | - | 284 W/m² | - |
| 1777816743 | 5.56° C | 61% | 1014.6 hPa | 0 mm | - | 91 W/m² | - |
| 1777816441 | 4.44° C | 68% | 1014.6 hPa | 0 mm | - | 490 W/m² | - |
| 1777816139 | 4.44° C | 70% | 1014.6 hPa | 0 mm | - | 250 W/m² | - |
| 1777815837 | 3.89° C | 71% | 1015 hPa | 0 mm | - | 201 W/m² | - |
| 1777815534 | 3.89° C | 70% | 1014.7 hPa | 0 mm | - | 265 W/m² | - |
| 1777815231 | 3.89° C | 72% | 1014.8 hPa | 0 mm | - | 223 W/m² | - |
| 1777814927 | 3.33° C | 73% | 1014.8 hPa | 0 mm | - | 199 W/m² | - |
| 1777814624 | 2.78° C | 74% | 1014.7 hPa | 0 mm | - | 269 W/m² | - |
| 1777814321 | 2.78° C | 75% | 1014.8 hPa | 0 mm | - | 123 W/m² | - |
| 1777814017 | 2.78° C | 76% | 1014.9 hPa | 0 mm | - | 136 W/m² | - |
| 1777813715 | 2.22° C | 76% | 1014.6 hPa | 0 mm | - | 107 W/m² | - |
| 1777813413 | 2.22° C | 76% | 1014.7 hPa | 0 mm | - | 107 W/m² | - |
| 1777813110 | 2.22° C | 78% | 1014.8 hPa | 0 mm | - | 195 W/m² | - |
| 1777812808 | 1.67° C | 78% | 1014.4 hPa | 0 mm | - | 105 W/m² | - |
| 1777812503 | 1.67° C | 79% | 1014.5 hPa | 0 mm | - | 70 W/m² | - |
| 1777812202 | 1.67° C | 82% | 1014.6 hPa | 0 mm | - | 159 W/m² | - |
| 1777811894 | 1.11° C | 81% | 1014.6 hPa | 0 mm | - | 181 W/m² | - |
| 1777811593 | 1.11° C | 81% | 1014.6 hPa | 0 mm | - | 81 W/m² | - |
| 1777811287 | 0.56° C | 83% | 1014.6 hPa | 0 mm | - | 40 W/m² | - |
| 1777810985 | 0.56° C | 83% | 1014.5 hPa | 0 mm | - | 87 W/m² | - |
| 1777810681 | 0.56° C | 84% | 1014.3 hPa | 0 mm | - | 49 W/m² | - |
| 1777810378 | 0° C | 84% | 1014.4 hPa | 0 mm | - | 34 W/m² | - |
* Rain latest hour (hover to see other rain measurements)
** Current wind speed in m/s (hover to see current wind gust speed)